Time;durP1;ratioP1;P1;durP2;ratioP2;P2;SDS_P1;SDS_P2;PMS_P1;PMS_P2;Temp;Humidity;BMP_temperature;BMP_pressure;BME280_temperature;BME280_humidity;BME280_pressure;Samples;Min_cycle;Max_cycle;Signal;HPM_P1;HPM_P2
2023/03/14 00:00:40;;;;;;;33.05;3.67;;;10.40;99.90;;;;;;4901212;29;20119;-82
2023/03/14 00:03:06;;;;;;;23.92;3.85;;;10.40;99.90;;;;;;4899700;29;20463;-80
2023/03/14 00:05:33;;;;;;;30.67;4.50;;;10.40;99.90;;;;;;4901075;29;20087;-82
2023/03/14 00:08:00;;;;;;;22.05;3.80;;;10.40;99.90;;;;;;4898917;29;20417;-81
2023/03/14 00:10:26;;;;;;;20.65;3.25;;;10.40;99.90;;;;;;4899865;29;20040;-79
2023/03/14 00:12:53;;;;;;;29.45;3.25;;;10.40;99.90;;;;;;4900156;29;20375;-79
2023/03/14 00:15:20;;;;;;;29.20;4.07;;;10.30;99.90;;;;;;4900134;29;20049;-81
2023/03/14 00:17:46;;;;;;;32.90;3.60;;;10.30;99.90;;;;;;4884432;29;20077;-78
2023/03/14 00:20:13;;;;;;;24.77;3.08;;;10.10;99.90;;;;;;4884124;29;20048;-81
2023/03/14 00:22:40;;;;;;;20.70;3.05;;;10.10;99.90;;;;;;4900104;29;20048;-81
2023/03/14 00:25:06;;;;;;;20.15;3.78;;;10.00;99.90;;;;;;4900490;29;20483;-80
2023/03/14 00:27:33;;;;;;;21.33;2.67;;;9.90;99.90;;;;;;4884257;29;20041;-81
2023/03/14 00:30:00;;;;;;;20.58;3.50;;;9.90;99.90;;;;;;4899289;29;20040;-81
2023/03/14 00:32:26;;;;;;;13.48;2.30;;;9.80;99.90;;;;;;4884083;29;20037;-80
2023/03/14 00:34:53;;;;;;;21.63;2.88;;;9.80;99.90;;;;;;4899712;29;20096;-82
2023/03/14 00:37:20;;;;;;;16.63;2.55;;;9.80;99.90;;;;;;4898775;29;20058;-81
2023/03/14 00:39:47;;;;;;;10.35;2.00;;;9.80;99.90;;;;;;4899288;29;20049;-82
2023/03/14 00:42:14;;;;;;;11.77;2.00;;;9.80;99.90;;;;;;4899546;29;20044;-81
2023/03/14 00:44:40;;;;;;;10.20;2.22;;;9.70;99.90;;;;;;4883872;29;20056;-80
2023/03/14 00:47:09;;;;;;;17.23;1.90;;;9.70;99.90;;;;;;4900191;29;20041;-80
2023/03/14 00:49:36;;;;;;;10.65;1.92;;;9.70;99.90;;;;;;4882750;29;20143;-82
2023/03/14 00:52:02;;;;;;;8.32;1.98;;;9.70;99.90;;;;;;4884116;29;20463;-77
2023/03/14 00:54:29;;;;;;;10.05;1.88;;;9.70;99.90;;;;;;4883693;29;20502;-80
2023/03/14 00:56:58;;;;;;;10.45;2.03;;;9.70;99.90;;;;;;4898363;29;20135;-78
2023/03/14 00:59:25;;;;;;;12.13;1.85;;;9.60;99.90;;;;;;4883978;29;20049;-79
2023/03/14 01:01:51;;;;;;;9.32;1.80;;;9.60;99.90;;;;;;4882990;29;20051;-81
2023/03/14 01:04:18;;;;;;;12.90;1.90;;;9.60;99.90;;;;;;4883666;29;20056;-81
2023/03/14 01:06:47;;;;;;;9.68;2.05;;;9.60;99.90;;;;;;4883614;29;20040;-81
2023/03/14 01:09:14;;;;;;;10.88;2.00;;;9.60;99.90;;;;;;4899112;29;20040;-80
2023/03/14 01:11:40;;;;;;;9.75;1.60;;;9.60;99.90;;;;;;4883587;29;20222;-79
2023/03/14 01:14:07;;;;;;;9.25;1.88;;;9.60;99.90;;;;;;4883634;29;20032;-79
2023/03/14 01:16:35;;;;;;;5.22;1.70;;;9.60;99.90;;;;;;4898117;29;20490;-81
2023/03/14 01:19:02;;;;;;;8.93;1.40;;;9.60;99.90;;;;;;4884951;29;20056;-81
2023/03/14 01:21:28;;;;;;;8.00;1.55;;;9.60;99.90;;;;;;4867062;29;20048;-82
2023/03/14 01:23:55;;;;;;;5.53;1.35;;;9.60;99.90;;;;;;4883462;29;20049;-78
2023/03/14 01:26:22;;;;;;;8.13;1.20;;;9.60;99.90;;;;;;4868088;29;20472;-79
2023/03/14 01:28:49;;;;;;;5.88;1.10;;;9.60;99.90;;;;;;4882135;29;20467;-78
2023/03/14 01:31:16;;;;;;;9.95;1.75;;;9.70;99.90;;;;;;4868015;29;20042;-78
2023/03/14 01:33:43;;;;;;;3.92;1.15;;;9.60;99.90;;;;;;4899467;29;20051;-80
2023/03/14 01:36:10;;;;;;;5.18;1.33;;;9.20;99.90;;;;;;4882761;29;20459;-77
2023/03/14 01:38:37;;;;;;;4.40;1.23;;;8.90;99.90;;;;;;4884146;29;20404;-79
2023/03/14 01:41:05;;;;;;;2.83;1.48;;;8.60;99.90;;;;;;4892091;29;20523;-79
2023/03/14 01:43:32;;;;;;;4.38;1.25;;;8.40;99.90;;;;;;4860590;29;20503;-77
2023/03/14 01:46:00;;;;;;;1.23;0.90;;;8.30;99.90;;;;;;4861562;29;20045;-77
2023/03/14 01:48:27;;;;;;;2.63;1.00;;;8.20;99.90;;;;;;4860977;29;20045;-79
2023/03/14 01:50:54;;;;;;;2.63;1.08;;;8.10;99.90;;;;;;4861617;29;20502;-79
2023/03/14 01:53:21;;;;;;;2.75;1.20;;;8.10;99.90;;;;;;4861488;29;20053;-79
2023/03/14 01:55:48;;;;;;;4.40;1.10;;;8.10;99.90;;;;;;4861207;29;20061;-78
2023/03/14 01:58:15;;;;;;;3.38;1.15;;;8.00;99.90;;;;;;4861291;29;20056;-79
2023/03/14 02:00:42;;;;;;;2.92;1.17;;;8.00;99.90;;;;;;4861523;29;20050;-79
2023/03/14 02:03:08;;;;;;;1.80;0.90;;;8.00;99.90;;;;;;4860422;29;20154;-80
2023/03/14 02:05:37;;;;;;;3.25;1.10;;;7.90;99.90;;;;;;4877173;29;20053;-77
2023/03/14 02:08:08;;;;;;;1.83;0.98;;;7.90;99.90;;;;;;4860745;29;20042;-79
2023/03/14 02:10:42;;;;;;;2.90;1.10;;;7.80;99.90;;;;;;4877069;29;20455;-79
2023/03/14 02:13:10;;;;;;;3.25;1.25;;;7.70;99.90;;;;;;4861359;29;20041;-80
2023/03/14 02:15:45;;;;;;;3.47;1.23;;;7.70;99.90;;;;;;4860401;29;20057;-82
2023/03/14 02:18:21;;;;;;;6.13;1.35;;;7.60;99.90;;;;;;4890898;29;20122;-83
2023/03/14 02:21:01;;;;;;;2.05;1.02;;;7.50;99.90;;;;;;4874969;29;20045;-79
2023/03/14 02:23:29;;;;;;;3.90;1.13;;;7.50;99.90;;;;;;4860284;29;20053;-78
2023/03/14 02:25:56;;;;;;;1.90;1.00;;;7.50;99.90;;;;;;4861037;29;20045;-80
2023/03/14 02:28:22;;;;;;;5.65;1.30;;;7.40;99.90;;;;;;4859750;29;20046;-79
2023/03/14 02:30:53;;;;;;;5.03;1.15;;;7.40;99.90;;;;;;4878363;29;20042;-82
2023/03/14 02:33:20;;;;;;;2.30;1.10;;;7.30;99.90;;;;;;4864333;29;20102;-81
2023/03/14 02:35:46;;;;;;;4.97;1.40;;;7.30;99.90;;;;;;4863451;29;20037;-80
2023/03/14 02:38:14;;;;;;;2.67;1.10;;;7.30;99.90;;;;;;4894910;29;20053;-79
2023/03/14 02:40:43;;;;;;;4.30;1.58;;;7.30;99.90;;;;;;4864179;29;20050;-82
2023/03/14 02:43:10;;;;;;;5.72;1.35;;;7.30;99.90;;;;;;4862974;29;20370;-81
2023/03/14 02:45:42;;;;;;;3.38;1.48;;;7.30;99.90;;;;;;4864374;29;20101;-77
2023/03/14 02:48:09;;;;;;;4.60;1.65;;;7.30;99.90;;;;;;4893909;29;20059;-78
2023/03/14 02:50:37;;;;;;;9.98;1.88;;;7.30;99.90;;;;;;4864344;29;20045;-77
2023/03/14 02:53:05;;;;;;;7.97;1.40;;;7.30;99.90;;;;;;4864300;29;20084;-81
2023/03/14 02:55:31;;;;;;;2.45;1.20;;;7.20;99.90;;;;;;4863255;29;20455;-80
2023/03/14 02:58:03;;;;;;;3.40;1.20;;;7.10;99.90;;;;;;4879138;29;20057;-81
2023/03/14 03:00:30;;;;;;;5.20;1.33;;;7.00;99.90;;;;;;4863919;29;20050;-81
2023/03/14 03:02:57;;;;;;;5.00;1.10;;;6.90;99.90;;;;;;4862865;29;20487;-81
2023/03/14 03:05:24;;;;;;;7.82;1.35;;;6.90;99.90;;;;;;4879595;29;20472;-77
2023/03/14 03:07:50;;;;;;;2.83;1.10;;;6.80;99.90;;;;;;4864779;29;20050;-78
2023/03/14 03:10:17;;;;;;;11.30;1.25;;;6.60;99.90;;;;;;4878255;29;20049;-81
2023/03/14 03:12:45;;;;;;;4.15;1.05;;;6.50;99.90;;;;;;4864253;29;20069;-80
2023/03/14 03:15:12;;;;;;;4.20;0.93;;;6.40;99.90;;;;;;4863003;29;20140;-79
2023/03/14 03:17:39;;;;;;;3.20;1.30;;;6.30;99.90;;;;;;4879244;29;20053;-80
2023/03/14 03:20:08;;;;;;;2.80;1.27;;;6.20;99.90;;;;;;4863267;29;20430;-81
2023/03/14 03:22:35;;;;;;;2.70;1.02;;;6.10;99.90;;;;;;4862455;29;20045;-79
2023/03/14 03:25:02;;;;;;;2.45;1.10;;;6.00;99.90;;;;;;4863453;29;20152;-79
2023/03/14 03:27:30;;;;;;;2.45;1.08;;;6.00;99.90;;;;;;4878810;29;20041;-79
2023/03/14 03:29:57;;;;;;;5.45;1.13;;;6.00;99.90;;;;;;4862079;29;20378;-81
2023/03/14 03:32:24;;;;;;;7.68;1.40;;;5.90;99.90;;;;;;4863274;29;20056;-80
2023/03/14 03:34:51;;;;;;;3.08;1.00;;;5.90;99.90;;;;;;4862472;29;20049;-77
2023/03/14 03:37:17;;;;;;;4.00;1.05;;;5.90;99.90;;;;;;4864404;29;20046;-78
2023/03/14 03:39:44;;;;;;;2.47;0.90;;;5.80;99.90;;;;;;4884687;29;20075;-82
2023/03/14 03:42:12;;;;;;;1.85;1.00;;;5.90;99.90;;;;;;4883725;29;20072;-80
2023/03/14 03:44:39;;;;;;;4.43;1.00;;;5.80;99.90;;;;;;4900520;29;20463;-79
2023/03/14 03:47:05;;;;;;;3.05;1.00;;;5.80;99.90;;;;;;4884715;29;20044;-80
2023/03/14 03:49:32;;;;;;;5.50;1.30;;;5.80;99.90;;;;;;4899131;29;20076;-83
2023/03/14 03:51:59;;;;;;;1.75;0.95;;;5.70;99.90;;;;;;4884745;29;20495;-81
2023/03/14 03:54:26;;;;;;;3.35;1.00;;;5.70;99.90;;;;;;4884668;29;20045;-81
2023/03/14 03:56:53;;;;;;;4.10;1.15;;;5.70;99.90;;;;;;4899292;29;20075;-81
2023/03/14 03:59:19;;;;;;;1.58;1.00;;;5.70;99.90;;;;;;4884404;29;20060;-82
2023/03/14 04:01:47;;;;;;;2.85;0.95;;;5.70;99.90;;;;;;4899045;29;20127;-79
2023/03/14 04:04:14;;;;;;;5.10;1.17;;;5.70;99.90;;;;;;4900142;29;20048;-80
2023/03/14 04:06:41;;;;;;;9.30;1.88;;;5.70;99.90;;;;;;4884256;29;20420;-81
2023/03/14 04:09:08;;;;;;;2.72;1.00;;;5.70;99.90;;;;;;4882927;29;20533;-79
2023/03/14 04:11:43;;;;;;;2.78;1.00;;;5.60;99.90;;;;;;4884560;29;20052;-81
2023/03/14 04:14:24;;;;;;;3.47;1.00;;;5.60;99.90;;;;;;4884591;29;20079;-80
2023/03/14 04:17:05;;;;;;;2.80;1.10;;;5.60;99.90;;;;;;4899545;29;20387;-82
2023/03/14 04:19:32;;;;;;;3.83;1.05;;;5.50;99.90;;;;;;4899493;29;20056;-79
2023/03/14 04:21:59;;;;;;;3.03;0.98;;;5.50;99.90;;;;;;4883212;29;20391;-80
2023/03/14 04:24:31;;;;;;;;;;;5.50;99.90;;;;;;4900288;29;20040;-79
2023/03/14 04:26:58;;;;;;;6.00;1.35;;;5.50;99.90;;;;;;4884019;29;20285;-79
2023/03/14 04:29:25;;;;;;;5.43;1.38;;;5.50;99.90;;;;;;4882655;29;20353;-78
2023/03/14 04:31:52;;;;;;;15.02;1.20;;;5.40;99.90;;;;;;4883811;29;20057;-80
2023/03/14 04:34:18;;;;;;;4.93;1.13;;;5.40;99.90;;;;;;4899556;29;20072;-80
2023/03/14 04:36:50;;;;;;;4.43;1.10;;;5.40;99.90;;;;;;4898530;29;20084;-82
2023/03/14 04:39:23;;;;;;;3.92;1.13;;;5.30;99.90;;;;;;4898960;29;20140;-80
2023/03/14 04:42:05;;;;;;;6.43;1.30;;;5.20;99.90;;;;;;4898431;29;20490;-79
2023/03/14 04:44:35;;;;;;;7.05;1.30;;;5.30;99.90;;;;;;4884267;29;20512;-79
2023/03/14 04:47:02;;;;;;;10.07;1.17;;;5.20;99.90;;;;;;4883733;29;20439;-82
2023/03/14 04:49:30;;;;;;;10.50;1.40;;;5.20;99.90;;;;;;4882148;29;20395;-78
2023/03/14 04:51:56;;;;;;;3.95;1.17;;;5.20;99.90;;;;;;4884118;29;20131;-79
2023/03/14 04:54:25;;;;;;;6.90;1.17;;;5.20;99.90;;;;;;4899512;29;20068;-79
2023/03/14 04:56:55;;;;;;;4.93;1.40;;;5.20;99.90;;;;;;4883094;29;20559;-81
2023/03/14 04:59:23;;;;;;;7.90;1.30;;;5.10;99.90;;;;;;4883404;29;20155;-78
2023/03/14 05:01:52;;;;;;;7.93;1.35;;;5.20;99.90;;;;;;4882522;29;20040;-78
2023/03/14 05:04:35;;;;;;;3.65;1.42;;;5.20;99.90;;;;;;4885993;29;20052;-79
2023/03/14 05:07:23;;;;;;;9.25;1.73;;;5.20;99.90;;;;;;4886282;29;20195;-80
2023/03/14 05:10:12;;;;;;;8.60;1.58;;;5.10;99.90;;;;;;4885190;29;20379;-78
2023/03/14 05:13:02;;;;;;;6.70;1.33;;;5.10;99.90;;;;;;4881759;29;20139;-79
2023/03/14 05:15:41;;;;;;;6.75;1.40;;;5.10;99.90;;;;;;4884067;29;20476;-81
2023/03/14 05:18:17;;;;;;;4.57;1.27;;;5.10;99.90;;;;;;4899316;29;20055;-81
2023/03/14 05:21:07;;;;;;;8.10;1.35;;;5.10;99.90;;;;;;4883426;29;20060;-81
2023/03/14 05:23:42;;;;;;;7.47;1.48;;;5.00;99.90;;;;;;4883505;29;20128;-80
2023/03/14 05:26:47;;;;;;;8.02;1.40;;;5.10;99.90;;;;;;4850334;29;20053;-82
2023/03/14 05:29:31;;;;;;;4.20;1.05;;;5.10;99.90;;;;;;4846182;29;20464;-78
2023/03/14 05:32:21;;;;;;;9.93;1.40;;;5.10;99.90;;;;;;4858584;29;20060;-80
2023/03/14 05:35:17;;;;;;;5.65;1.33;;;5.20;99.90;;;;;;4845896;29;20057;-82
2023/03/14 05:37:59;;;;;;;4.82;1.08;;;5.20;99.90;;;;;;4879402;29;20067;-81
2023/03/14 05:40:43;;;;;;;4.18;1.23;;;5.20;99.90;;;;;;4864715;29;20144;-79
2023/03/14 05:43:19;;;;;;;6.50;1.25;;;5.30;99.90;;;;;;4878795;29;20076;-81
2023/03/14 05:46:06;;;;;;;10.90;1.60;;;5.30;99.90;;;;;;4852167;29;20052;-82
2023/03/14 05:48:46;;;;;;;6.78;1.40;;;5.30;99.90;;;;;;4877877;29;20053;-82
2023/03/14 05:51:31;;;;;;;6.97;1.27;;;5.40;99.90;;;;;;4881128;29;20502;-81
2023/03/14 05:54:18;;;;;;;5.53;1.08;;;5.40;99.90;;;;;;4879891;29;20055;-80
2023/03/14 05:56:47;;;;;;;14.05;1.38;;;5.40;99.90;;;;;;4879536;29;20409;-78
2023/03/14 05:59:31;;;;;;;7.28;1.50;;;5.40;99.90;;;;;;4880457;29;20064;-81
2023/03/14 06:02:04;;;;;;;;;;;5.40;99.90;;;;;;4880113;29;20067;-80
2023/03/14 06:04:41;;;;;;;2.33;0.95;;;5.30;99.90;;;;;;4881822;29;19924;-82
2023/03/14 06:07:08;;;;;;;18.95;1.65;;;5.30;99.90;;;;;;4883423;29;20049;-80
2023/03/14 06:09:35;;;;;;;13.07;1.50;;;5.30;99.90;;;;;;4866748;29;20041;-78
2023/03/14 06:12:01;;;;;;;4.07;1.33;;;5.30;99.90;;;;;;4883353;29;20101;-80
2023/03/14 06:14:33;;;;;;;18.42;2.28;;;5.30;99.90;;;;;;4883508;29;20075;-81
2023/03/14 06:17:01;;;;;;;7.22;1.40;;;5.30;99.90;;;;;;4882207;29;20045;-81
2023/03/14 06:19:36;;;;;;;5.75;1.20;;;5.40;99.90;;;;;;4883058;29;20484;-81
2023/03/14 06:22:03;;;;;;;4.07;1.23;;;5.40;99.90;;;;;;4882946;29;20049;-79
2023/03/14 06:24:32;;;;;;;5.20;1.15;;;5.50;99.90;;;;;;4883315;29;20045;-78
2023/03/14 06:26:59;;;;;;;6.53;1.70;;;5.50;99.90;;;;;;4883090;29;20046;-81
2023/03/14 06:29:26;;;;;;;6.13;1.38;;;5.50;99.90;;;;;;4882662;29;20049;-78
2023/03/14 06:31:52;;;;;;;15.93;1.88;;;5.50;99.90;;;;;;4885658;29;20041;-77
2023/03/14 06:34:19;;;;;;;10.77;1.40;;;5.50;99.90;;;;;;4886158;29;20037;-80
2023/03/14 06:36:46;;;;;;;10.32;2.30;;;5.60;99.90;;;;;;4901629;29;20041;-79
2023/03/14 06:39:13;;;;;;;10.93;1.73;;;5.60;99.90;;;;;;4885650;29;20441;-81
2023/03/14 06:41:44;;;;;;;15.23;1.77;;;5.60;99.90;;;;;;4900762;29;20060;-79
2023/03/14 06:44:10;;;;;;;6.25;1.35;;;5.60;99.90;;;;;;4901702;29;20044;-82
2023/03/14 06:46:37;;;;;;;4.95;1.40;;;5.70;99.90;;;;;;4901410;29;20104;-81
2023/03/14 06:49:05;;;;;;;8.18;1.25;;;5.70;99.90;;;;;;4899970;29;20084;-79
2023/03/14 06:51:32;;;;;;;10.88;1.83;;;5.70;99.90;;;;;;4885963;29;20068;-80
2023/03/14 06:54:01;;;;;;;7.78;1.63;;;5.70;99.90;;;;;;4901474;29;20475;-81
2023/03/14 06:56:28;;;;;;;12.57;1.98;;;5.80;99.90;;;;;;4884642;29;20379;-82
2023/03/14 06:58:56;;;;;;;8.48;1.63;;;5.80;99.90;;;;;;4901016;29;20052;-80
2023/03/14 07:01:25;;;;;;;10.15;1.80;;;5.90;99.90;;;;;;4900385;29;20064;-79
2023/03/14 07:03:54;;;;;;;10.35;1.30;;;5.90;99.90;;;;;;4885623;29;20056;-79
2023/03/14 07:06:21;;;;;;;7.35;1.42;;;5.80;99.90;;;;;;4885781;29;20491;-79
2023/03/14 07:08:48;;;;;;;7.22;1.45;;;5.90;99.90;;;;;;4883777;29;20480;-79
2023/03/14 07:11:16;;;;;;;7.85;1.70;;;5.90;99.90;;;;;;4885297;29;20538;-80
2023/03/14 07:13:42;;;;;;;7.40;1.40;;;5.80;99.90;;;;;;4885525;29;20049;-78
2023/03/14 07:16:10;;;;;;;8.63;1.38;;;5.90;99.90;;;;;;4883550;29;20040;-81
2023/03/14 07:18:37;;;;;;;11.50;1.52;;;5.90;99.90;;;;;;4885025;29;20488;-80
2023/03/14 07:21:05;;;;;;;6.03;1.38;;;5.90;99.90;;;;;;4900804;29;20041;-81
2023/03/14 07:23:31;;;;;;;9.30;2.03;;;6.00;99.90;;;;;;4899876;29;20072;-79
2023/03/14 07:25:58;;;;;;;6.75;1.80;;;5.90;99.90;;;;;;4885328;29;20056;-79
2023/03/14 07:28:27;;;;;;;6.28;1.40;;;6.00;99.90;;;;;;4883699;29;20104;-81
2023/03/14 07:31:02;;;;;;;7.43;1.20;;;5.90;99.90;;;;;;4886170;29;20486;-82
2023/03/14 07:33:31;;;;;;;10.70;1.70;;;6.00;99.90;;;;;;4888198;29;20049;-80
2023/03/14 07:35:57;;;;;;;6.25;1.50;;;5.90;99.90;;;;;;4883638;29;20128;-79
2023/03/14 07:38:24;;;;;;;10.50;1.50;;;6.00;99.90;;;;;;4883752;29;20048;-81
2023/03/14 07:41:11;;;;;;;12.88;1.70;;;6.00;99.90;;;;;;4896092;29;20165;-79
2023/03/14 07:44:01;;;;;;;7.85;1.48;;;6.00;99.90;;;;;;4896036;29;20056;-80
2023/03/14 07:46:27;;;;;;;4.90;1.58;;;6.00;99.90;;;;;;4900697;29;20045;-80
2023/03/14 07:48:54;;;;;;;12.60;2.08;;;6.00;99.90;;;;;;4908196;29;20080;-80
2023/03/14 07:51:21;;;;;;;9.05;2.20;;;6.00;99.90;;;;;;4897921;29;20044;-78
2023/03/14 07:53:47;;;;;;;6.03;1.60;;;6.00;99.90;;;;;;4878946;29;20039;-80
2023/03/14 07:56:15;;;;;;;9.88;1.65;;;6.00;99.90;;;;;;4888821;29;20036;-82
2023/03/14 07:58:42;;;;;;;4.60;1.23;;;5.90;99.90;;;;;;4880270;29;21146;-80
2023/03/14 08:01:08;;;;;;;9.98;1.95;;;5.90;99.90;;;;;;4900337;29;20040;-79
2023/03/14 08:03:35;;;;;;;4.30;1.30;;;5.90;99.90;;;;;;4870309;29;20048;-78
2023/03/14 08:06:02;;;;;;;4.70;1.40;;;5.80;99.90;;;;;;4899316;29;20048;-80
2023/03/14 08:08:28;;;;;;;9.88;1.70;;;5.80;99.90;;;;;;4898574;29;20044;-78
2023/03/14 08:10:55;;;;;;;5.38;1.27;;;5.70;99.90;;;;;;4899578;29;20049;-78
2023/03/14 08:13:23;;;;;;;6.25;1.50;;;5.70;99.90;;;;;;4899635;29;20067;-78
2023/03/14 08:15:51;;;;;;;4.28;1.13;;;5.60;99.90;;;;;;4902730;29;20044;-80
2023/03/14 08:18:18;;;;;;;7.32;1.52;;;5.60;99.90;;;;;;4902408;29;20052;-78
2023/03/14 08:20:44;;;;;;;3.33;1.23;;;5.50;99.90;;;;;;4899856;29;20048;-82
2023/03/14 08:23:11;;;;;;;5.07;1.40;;;5.50;99.90;;;;;;4899136;29;20048;-80
2023/03/14 08:25:39;;;;;;;4.65;1.50;;;5.50;99.90;;;;;;4900362;29;20052;-81
2023/03/14 08:28:05;;;;;;;6.88;1.38;;;5.50;99.90;;;;;;4898040;29;20040;-80
2023/03/14 08:30:32;;;;;;;4.57;1.30;;;5.50;99.90;;;;;;4900063;29;20058;-79
2023/03/14 08:32:59;;;;;;;5.07;1.35;;;5.50;99.90;;;;;;4900707;29;20048;-82
2023/03/14 08:35:26;;;;;;;5.50;1.25;;;5.50;99.90;;;;;;4899077;29;20099;-82
2023/03/14 08:37:52;;;;;;;3.92;1.17;;;5.50;99.90;;;;;;4898758;29;20064;-83
2023/03/14 08:40:19;;;;;;;3.15;1.13;;;5.40;99.90;;;;;;4898105;29;20056;-79
2023/03/14 08:42:46;;;;;;;5.25;1.23;;;5.40;99.90;;;;;;4899289;29;20044;-80
2023/03/14 08:45:12;;;;;;;4.13;1.30;;;5.50;99.90;;;;;;4893843;29;20045;-81
2023/03/14 08:47:39;;;;;;;4.28;1.40;;;5.40;99.90;;;;;;4898629;29;20417;-80
2023/03/14 08:50:06;;;;;;;5.18;1.45;;;5.40;99.90;;;;;;4898985;29;20068;-80
2023/03/14 08:52:32;;;;;;;4.43;1.58;;;5.40;99.90;;;;;;4894986;29;20048;-81
2023/03/14 08:54:59;;;;;;;3.95;1.35;;;5.40;99.90;;;;;;4897548;29;20048;-80
2023/03/14 08:57:28;;;;;;;7.50;1.55;;;5.40;99.90;;;;;;4899565;29;20040;-80
2023/03/14 08:59:58;;;;;;;4.65;1.60;;;5.40;99.90;;;;;;4898336;29;20147;-78
2023/03/14 09:02:25;;;;;;;5.20;1.92;;;5.30;99.90;;;;;;4885411;29;20468;-80
2023/03/14 09:04:51;;;;;;;3.55;1.42;;;5.30;99.90;;;;;;4867885;29;20151;-80
2023/03/14 09:07:20;;;;;;;4.55;1.48;;;5.20;99.90;;;;;;4899067;29;20047;-80
2023/03/14 09:09:47;;;;;;;3.50;1.38;;;5.20;99.90;;;;;;4898705;29;20104;-80
2023/03/14 09:12:13;;;;;;;2.90;1.10;;;5.20;99.90;;;;;;4883049;29;20044;-81
2023/03/14 09:14:40;;;;;;;2.60;1.17;;;5.20;99.90;;;;;;4900763;29;20040;-79
2023/03/14 09:17:08;;;;;;;2.53;1.00;;;5.10;99.90;;;;;;4897540;29;20056;-82
2023/03/14 09:19:34;;;;;;;2.20;1.10;;;5.10;99.90;;;;;;4897535;29;20049;-81
2023/03/14 09:22:01;;;;;;;1.48;0.93;;;5.10;99.90;;;;;;4895084;29;20076;-82
2023/03/14 09:24:28;;;;;;;4.05;1.17;;;5.20;99.90;;;;;;4909905;29;20045;-82
2023/03/14 09:26:56;;;;;;;1.90;1.00;;;5.20;99.90;;;;;;4903069;29;20085;-79
2023/03/14 09:29:24;;;;;;;2.03;1.00;;;5.20;99.90;;;;;;4884720;29;20357;-80
2023/03/14 09:31:50;;;;;;;2.60;1.10;;;5.30;99.90;;;;;;4875758;29;20056;-83
2023/03/14 09:34:17;;;;;;;2.05;1.00;;;5.30;99.90;;;;;;4883799;29;20253;-80
2023/03/14 09:36:44;;;;;;;2.80;1.17;;;5.20;99.90;;;;;;4898701;29;20044;-79
2023/03/14 09:39:11;;;;;;;4.95;1.30;;;5.10;99.90;;;;;;4896990;29;20052;-77
2023/03/14 09:41:37;;;;;;;3.67;1.52;;;5.20;99.90;;;;;;4897244;29;20075;-81
2023/03/14 09:44:04;;;;;;;3.08;1.10;;;5.20;99.90;;;;;;4869539;29;20045;-82
2023/03/14 09:46:31;;;;;;;2.08;0.90;;;5.00;99.90;;;;;;4898639;29;20104;-81
2023/03/14 09:48:57;;;;;;;3.35;1.25;;;5.10;99.90;;;;;;4881908;29;20059;-79
2023/03/14 09:51:25;;;;;;;2.92;1.13;;;5.00;99.90;;;;;;4897852;29;20418;-80
2023/03/14 09:53:52;;;;;;;2.03;1.00;;;5.00;99.90;;;;;;4898304;29;20052;-81
2023/03/14 09:56:18;;;;;;;5.40;1.38;;;4.90;99.90;;;;;;4898141;29;20067;-80
2023/03/14 09:58:45;;;;;;;3.25;1.20;;;4.90;99.90;;;;;;4897914;29;20064;-81
2023/03/14 10:01:12;;;;;;;4.05;1.33;;;4.90;99.90;;;;;;4898277;29;20056;-82
2023/03/14 10:03:38;;;;;;;7.00;1.60;;;4.80;99.90;;;;;;4881793;29;20147;-79
2023/03/14 10:06:05;;;;;;;6.50;1.73;;;4.70;99.90;;;;;;4898383;29;20483;-79
2023/03/14 10:08:32;;;;;;;5.88;1.58;;;4.80;99.90;;;;;;4897693;29;20049;-81
2023/03/14 10:10:59;;;;;;;7.80;1.50;;;4.80;99.90;;;;;;4899189;29;20364;-80
2023/03/14 10:13:26;;;;;;;7.72;1.40;;;4.80;99.90;;;;;;4899063;29;20055;-78
2023/03/14 10:15:53;;;;;;;5.00;1.70;;;4.90;99.90;;;;;;4897199;29;20044;-80
2023/03/14 10:18:20;;;;;;;7.28;1.50;;;4.80;99.90;;;;;;4880603;29;20470;-79
2023/03/14 10:20:47;;;;;;;4.07;1.52;;;4.90;99.90;;;;;;4898303;29;20048;-79
2023/03/14 10:23:14;;;;;;;6.45;1.83;;;4.90;99.90;;;;;;4913220;29;20060;-76
2023/03/14 10:25:41;;;;;;;6.40;2.05;;;5.10;99.90;;;;;;4914304;29;20041;-81
2023/03/14 10:28:07;;;;;;;6.22;1.80;;;5.10;99.90;;;;;;4899598;29;20037;-77
2023/03/14 10:30:35;;;;;;;7.93;2.13;;;5.20;99.90;;;;;;4880612;29;20353;-80
2023/03/14 10:33:01;;;;;;;8.20;1.67;;;5.30;99.90;;;;;;4895591;29;20048;-80
2023/03/14 10:35:29;;;;;;;7.75;2.38;;;5.40;99.90;;;;;;4866202;29;20061;-82
2023/03/14 10:37:56;;;;;;;6.82;2.35;;;5.50;99.90;;;;;;4898628;29;20067;-80
2023/03/14 10:40:23;;;;;;;36.67;3.80;;;5.70;99.90;;;;;;4897824;29;20512;-79
2023/03/14 10:42:51;;;;;;;7.40;1.95;;;5.90;99.90;;;;;;4881923;29;20045;-79
2023/03/14 10:45:18;;;;;;;19.23;2.78;;;6.00;99.90;;;;;;4897882;29;20449;-78
2023/03/14 10:47:45;;;;;;;19.60;2.53;;;6.10;99.90;;;;;;4897887;29;20055;-79
2023/03/14 10:50:12;;;;;;;7.43;2.30;;;6.10;99.90;;;;;;4889094;29;20045;-80
2023/03/14 10:52:38;;;;;;;9.23;1.80;;;6.20;99.90;;;;;;4883179;29;20044;-78
2023/03/14 10:55:27;;;;;;;7.32;2.22;;;6.20;99.90;;;;;;4866259;29;20045;-79
2023/03/14 10:57:54;;;;;;;6.15;1.63;;;6.50;99.90;;;;;;4883345;29;20056;-78
2023/03/14 11:00:21;;;;;;;7.70;1.73;;;6.90;99.90;;;;;;4882268;29;20076;-80
2023/03/14 11:02:48;;;;;;;9.10;1.67;;;7.20;99.90;;;;;;4881555;29;20045;-81
2023/03/14 11:05:15;;;;;;;7.28;1.65;;;7.40;99.90;;;;;;4883981;29;20045;-81
2023/03/14 11:07:41;;;;;;;10.10;2.10;;;7.50;99.90;;;;;;4885085;29;20040;-81
2023/03/14 11:10:08;;;;;;;5.72;1.70;;;8.00;99.90;;;;;;4900350;29;20084;-80
2023/03/14 11:12:35;;;;;;;6.47;1.77;;;8.50;99.90;;;;;;4900960;29;20045;-81
2023/03/14 11:15:01;;;;;;;11.18;1.88;;;8.60;99.90;;;;;;4898511;29;20053;-81
2023/03/14 11:19:58;;;;;;;7.38;1.88;;;9.20;99.90;;;;;;4915922;29;20079;-79
2023/03/14 11:22:25;;;;;;;9.80;1.88;;;9.30;99.90;;;;;;4885841;29;20479;-81
2023/03/14 11:24:52;;;;;;;7.38;1.52;;;9.00;99.90;;;;;;4884835;29;20056;-80
2023/03/14 11:27:18;;;;;;;10.73;1.77;;;8.70;99.90;;;;;;4884835;29;20048;-79
2023/03/14 11:29:45;;;;;;;8.80;1.52;;;8.70;99.90;;;;;;4900081;29;20036;-81
2023/03/14 11:32:12;;;;;;;5.38;1.52;;;8.70;99.90;;;;;;4892568;29;20379;-80
2023/03/14 11:34:38;;;;;;;8.70;1.63;;;8.60;99.90;;;;;;4900862;29;20135;-78
2023/03/14 11:37:05;;;;;;;7.13;1.60;;;8.70;99.90;;;;;;4899884;29;20044;-78
2023/03/14 11:39:32;;;;;;;8.93;1.75;;;9.00;99.90;;;;;;4901012;29;20067;-79
2023/03/14 11:41:58;;;;;;;11.30;2.58;;;9.30;99.90;;;;;;4899735;29;20056;-81
2023/03/14 11:44:26;;;;;;;8.65;1.90;;;9.40;99.90;;;;;;4884873;29;20048;-80
2023/03/14 11:46:54;;;;;;;13.02;2.08;;;9.50;99.90;;;;;;4901327;29;20388;-79
2023/03/14 11:49:22;;;;;;;7.22;1.77;;;9.80;99.90;;;;;;4900356;29;20045;-80
2023/03/14 11:51:48;;;;;;;8.15;2.00;;;9.90;99.90;;;;;;4884685;29;20051;-80
2023/03/14 11:54:15;;;;;;;8.82;1.80;;;10.10;99.90;;;;;;4901244;29;20400;-82
2023/03/14 11:56:43;;;;;;;10.32;1.90;;;9.70;99.90;;;;;;4883926;29;20055;-82
2023/03/14 11:59:10;;;;;;;8.50;1.70;;;9.80;99.90;;;;;;4883817;29;20041;-82
2023/03/14 12:01:36;;;;;;;10.95;2.20;;;10.10;99.90;;;;;;4883193;29;20444;-81
2023/03/14 12:04:03;;;;;;;9.85;2.17;;;10.60;99.90;;;;;;4900994;29;20436;-80
2023/03/14 12:06:30;;;;;;;8.10;1.80;;;11.10;99.90;;;;;;4884312;29;20051;-81
2023/03/14 12:08:57;;;;;;;13.02;2.10;;;11.30;99.90;;;;;;4883624;29;20127;-79
2023/03/14 12:11:24;;;;;;;14.48;2.33;;;11.70;99.90;;;;;;4873365;29;20067;-82
2023/03/14 12:13:51;;;;;;;13.38;2.40;;;12.20;99.90;;;;;;4881972;29;20349;-81
2023/03/14 12:16:17;;;;;;;7.15;1.88;;;12.60;99.90;;;;;;4865014;29;20472;-80
2023/03/14 12:18:44;;;;;;;8.93;2.03;;;12.80;99.90;;;;;;4881160;29;20464;-81
2023/03/14 12:21:11;;;;;;;6.80;1.90;;;12.50;99.90;;;;;;4881035;29;20116;-82
2023/03/14 12:23:37;;;;;;;9.38;1.60;;;12.10;99.90;;;;;;4881126;29;20037;-80
2023/03/14 12:26:05;;;;;;;6.75;1.75;;;11.50;99.90;;;;;;4866880;29;20052;-80
2023/03/14 12:28:32;;;;;;;10.48;2.13;;;11.00;99.90;;;;;;4898764;29;20071;-78
2023/03/14 12:30:58;;;;;;;9.57;2.03;;;11.70;99.90;;;;;;4897871;29;20057;-82
2023/03/14 12:33:25;;;;;;;9.88;1.85;;;11.60;99.90;;;;;;4896427;29;20079;-81
2023/03/14 12:35:53;;;;;;;6.90;2.00;;;12.30;99.90;;;;;;4886726;29;20048;-81
2023/03/14 12:38:20;;;;;;;10.65;2.13;;;13.10;99.90;;;;;;4898967;29;20056;-78
2023/03/14 12:40:46;;;;;;;7.95;1.70;;;13.20;99.90;;;;;;4900049;29;20036;-81
2023/03/14 12:43:13;;;;;;;11.93;1.80;;;12.20;99.90;;;;;;4885690;29;20053;-81
2023/03/14 12:45:39;;;;;;;10.20;1.70;;;11.30;99.90;;;;;;4898125;29;20100;-80
2023/03/14 12:48:08;;;;;;;9.18;1.70;;;10.60;99.90;;;;;;4902619;29;20077;-79
2023/03/14 12:50:35;;;;;;;6.50;1.58;;;10.30;99.90;;;;;;4904804;29;20060;-80
2023/03/14 12:53:02;;;;;;;8.77;1.80;;;10.00;99.90;;;;;;4897552;29;20345;-79
2023/03/14 12:55:29;;;;;;;6.45;1.40;;;10.50;99.90;;;;;;4882982;29;20044;-80
2023/03/14 12:57:56;;;;;;;7.85;1.70;;;10.70;99.90;;;;;;4899705;29;20063;-81
2023/03/14 13:00:23;;;;;;;8.85;1.60;;;10.80;99.90;;;;;;4899951;29;20071;-81
2023/03/14 13:02:50;;;;;;;36.47;2.58;;;10.70;99.90;;;;;;4899174;29;20143;-80
2023/03/14 13:05:16;;;;;;;8.10;1.65;;;10.50;99.90;;;;;;4883235;29;20052;-80